Baie Comeau, Baie Comeau Airport (CYBC)

NameBaie Comeau Airport
CityBaie Comeau
CountryCanada
ICAOCYBC
IATAYBC
Altitude22 m
CoordinatesGoogle Map
Live Air TrafficLiveATC.net
METARCYBC 160600Z AUTO 26008KT 9SM CLR 04/03 A2993 RMK SLP138
2019-10-16 06:00:00 Wind: West-Southwest (260°) 4.12 m/s - Visibility: 14484.06 m - Temperature: 4 °C - Dew point: 3 °C - Humidity: 93.3% - Pressure: 1013.55 hPa
Statistics

The table below shows the detailed information of all flights to/from Baie Comeau, Baie Comeau Airport (CYBC).